Impacts TAF Board INFO
FOR SITUATIONAL AWARENESS. NOT TO BE USED FOR FLIGHT PLANNING PURPOSES.
IDs:

KSEA - Seattle-Tacoma Intl, WA, US

Issued at 1421 UTC 13 Dec 2017
Updated at 1503 UTC 13 Dec 2017
Potential Impact None Slight Moderate High
Time<<14/16Z 14/17Z 14/18Z 14/19Z 14/20Z 14/21Z 14/22Z 14/23Z 15/00Z 15/01Z 15/02Z 15/03Z 15/04Z
Type PRVL
  [TEMP]  
PRVL
  [TEMP]  
VIS 2
  [0.5]  
2
  [0.5]  
CIG --
  [2]  
--
  [2]  
Cover SCT
  [OVX]  
SCT
  [OVX]  
FltCat IFR
  [LIFR]  
IFR
  [LIFR]  
WX BR
  [FG]  
BR
  [FG]  
WDir 40
[40]
40
[40]
WSpd 6
  [6]  
6
  [6]  
WGst --
  [--]  
--
  [--]  

Raw TAF
KSEA 131421Z 1314/1418 35005KT P6SM SKC
  FM141100 04006KT 2SM BR SCT002
  TEMPO 1414/1418 1/2SM FG VV002


METAR Board
Radar Display
Forecast Discussion

FOR SITUATIONAL AWARENESS. NOT TO BE USED FOR FLIGHT PLANNING PURPOSES.